Time;durP1;ratioP1;P1;durP2;ratioP2;P2;SDS_P1;SDS_P2;PMS_P1;PMS_P2;Temp;Humidity;BMP_temperature;BMP_pressure;BME280_temperature;BME280_humidity;BME280_pressure;Samples;Min_cycle;Max_cycle;Signal;HPM_P1;HPM_P2
2021/11/30 00:00:00;;;;;;;;;;;;;;;;;;349854;28;1047;-71
2021/11/30 00:00:39;;;;;;;;;;;;;;;;;;349860;28;991;-71
2021/11/30 00:00:49;;;;;;;;;;;;;;;;;;349892;28;841;-71
2021/11/30 00:01:00;;;;;;;;;;;;;;;;;;349844;28;829;-71
2021/11/30 00:01:29;;;;;;;;;;;;;;;;;;349873;28;833;-71
2021/11/30 00:01:40;;;;;;;;;;;;;;;;;;349668;28;971;-71
2021/11/30 00:01:50;;;;;;;;;;;;;;;;;;349877;28;837;-71
2021/11/30 00:02:01;;;;;;;;;;;;;;;;;;349994;28;873;-71
2021/11/30 00:02:11;;;;;;;;;;;;;;;;;;349916;28;884;-71
2021/11/30 00:02:22;;;;;;;;;;;;;;;;;;349856;28;830;-71
2021/11/30 00:02:52;;;;;;;;;;;;;;;;;;344345;28;1006;-71
2021/11/30 00:03:03;;;;;;;;;;;;;;;;;;344391;28;822;-71
2021/11/30 00:03:16;;;;;;;;;;;;;;;;;;344242;28;1068;-71
2021/11/30 00:03:27;;;;;;;;;;;;;;;;;;344317;28;976;-71
2021/11/30 00:03:38;;;;;;;;;;;;;;;;;;344247;28;862;-72
2021/11/30 00:03:49;;;;;;;;;;;;;;;;;;344267;28;819;-71
2021/11/30 00:03:59;;;;;;;;;;;;;;;;;;344871;28;1020;-71
2021/11/30 00:04:10;;;;;;;;;;;;;;;;;;348502;28;976;-71
2021/11/30 00:04:23;;;;;;;;;;;;;;;;;;349568;28;917;-71
2021/11/30 00:04:33;;;;;;;;;;;;;;;;;;349806;28;956;-71
2021/11/30 00:04:43;;;;;;;;;;;;;;;;;;349926;28;790;-71
2021/11/30 00:04:54;;;;;;;;;;;;;;;;;;349923;28;794;-71
2021/11/30 00:05:05;;;;;;;;;;;;;;;;;;349853;28;948;-71
2021/11/30 00:05:15;;;;;;;;;;;;;;;;;;349882;28;861;-71
2021/11/30 00:05:56;;;;;;;;;;;;;;;;;;346388;28;1146;-71
2021/11/30 00:06:07;;;;;;;;;;;;;;;;;;346968;28;1393;-71
2021/11/30 00:06:18;;;;;;;;;;;;;;;;;;348852;28;1064;-71
2021/11/30 00:06:28;;;;;;;;;;;;;;;;;;349973;28;805;-71
2021/11/30 00:06:39;;;;;;;;;;;;;;;;;;349852;28;961;-71
2021/11/30 00:07:15;;;;;;;;;;;;;;;;;;352541;28;1206;-71
2021/11/30 00:07:26;;;;;;;;;;;;;;;;;;350834;28;1395;-71
2021/11/30 00:07:36;;;;;;;;;;;;;;;;;;351101;28;955;-71
2021/11/30 00:07:51;;;;;;;;;;;;;;;;;;349838;28;1015;-71
2021/11/30 00:08:03;;;;;;;;;;;;;;;;;;349894;28;826;-71
2021/11/30 00:08:15;;;;;;;;;;;;;;;;;;348248;28;1265;-71
2021/11/30 00:08:29;;;;;;;;;;;;;;;;;;348497;28;999;-71
2021/11/30 00:08:40;;;;;;;;;;;;;;;;;;348415;28;995;-71
2021/11/30 00:08:57;;;;;;;;;;;;;;;;;;348493;28;1139;-71
2021/11/30 00:09:23;;;;;;;;;;;;;;;;;;348385;28;995;-71
2021/11/30 00:10:58;;;;;;;;;;;;;;;;;;349924;28;995;-71
2021/11/30 00:11:10;;;;;;;;;;;;;;;;;;349932;28;1019;-71
2021/11/30 00:11:20;;;;;;;;;;;;;;;;;;349932;28;782;-71
2021/11/30 00:11:30;;;;;;;;;;;;;;;;;;349915;28;826;-71
2021/11/30 00:11:41;;;;;;;;;;;;;;;;;;349858;28;865;-71
2021/11/30 00:11:51;;;;;;;;;;;;;;;;;;349869;28;806;-71
2021/11/30 00:12:03;;;;;;;;;;;;;;;;;;349905;28;897;-71
2021/11/30 00:12:22;;;;;;;;;;;;;;;;;;349968;28;838;-71
2021/11/30 00:12:34;;;;;;;;;;;;;;;;;;351191;28;1288;-71
2021/11/30 00:12:45;;;;;;;;;;;;;;;;;;350829;28;1177;-71
2021/11/30 00:12:56;;;;;;;;;;;;;;;;;;348420;28;1187;-71
2021/11/30 00:13:06;;;;;;;;;;;;;;;;;;348386;28;806;-71
2021/11/30 00:13:18;;;;;;;;;;;;;;;;;;348529;28;829;-71
2021/11/30 00:13:29;;;;;;;;;;;;;;;;;;347109;28;790;-71
2021/11/30 00:13:40;;;;;;;;;;;;;;;;;;347058;28;815;-71
2021/11/30 00:14:06;;;;;;;;;;;;;;;;;;347052;28;1418;-71
2021/11/30 00:14:16;;;;;;;;;;;;;;;;;;347095;28;853;-71
2021/11/30 00:14:28;;;;;;;;;;;;;;;;;;347139;28;865;-71
2021/11/30 00:14:39;;;;;;;;;;;;;;;;;;347111;28;959;-71
2021/11/30 00:14:51;;;;;;;;;;;;;;;;;;347415;28;865;-71
2021/11/30 00:15:01;;;;;;;;;;;;;;;;;;348496;28;976;-71
2021/11/30 00:15:24;;;;;;;;;;;;;;;;;;348365;28;1394;-71
2021/11/30 00:15:34;;;;;;;;;;;;;;;;;;348531;28;849;-71
2021/11/30 00:15:46;;;;;;;;;;;;;;;;;;348472;28;811;-71
2021/11/30 00:16:10;;;;;;;;;;;;;;;;;;349844;28;1447;-71
2021/11/30 00:16:21;;;;;;;;;;;;;;;;;;349837;28;830;-71
2021/11/30 00:16:46;;;;;;;;;;;;;;;;;;349914;28;888;-71
2021/11/30 00:17:23;;;;;;;;;;;;;;;;;;348454;28;814;-71
2021/11/30 00:17:33;;;;;;;;;;;;;;;;;;348405;28;857;-71
2021/11/30 00:17:44;;;;;;;;;;;;;;;;;;349489;28;1134;-71
2021/11/30 00:17:54;;;;;;;;;;;;;;;;;;349030;28;818;-71
2021/11/30 00:18:04;;;;;;;;;;;;;;;;;;348508;28;814;-71
2021/11/30 00:18:15;;;;;;;;;;;;;;;;;;348454;28;953;-71
2021/11/30 00:18:27;;;;;;;;;;;;;;;;;;348412;28;948;-71
2021/11/30 00:18:52;;;;;;;;;;;;;;;;;;348426;28;988;-71
2021/11/30 00:19:44;;;;;;;;;;;;;;;;;;348425;28;1048;-71
2021/11/30 00:19:55;;;;;;;;;;;;;;;;;;348581;28;913;-71
2021/11/30 00:20:11;;;;;;;;;;;;;;;;;;348563;28;885;-71
2021/11/30 00:20:22;;;;;;;;;;;;;;;;;;348630;28;936;-71
2021/11/30 00:20:32;;;;;;;;;;;;;;;;;;348551;28;849;-71
2021/11/30 00:20:43;;;;;;;;;;;;;;;;;;348610;28;1042;-71
2021/11/30 00:21:00;;;;;;;;;;;;;;;;;;348601;28;972;-71
2021/11/30 00:21:11;;;;;;;;;;;;;;;;;;349786;28;1483;-71
2021/11/30 00:21:21;;;;;;;;;;;;;;;;;;349910;28;872;-71
2021/11/30 00:21:32;;;;;;;;;;;;;;;;;;348319;28;912;-71
2021/11/30 00:21:42;;;;;;;;;;;;;;;;;;348367;28;968;-71
2021/11/30 00:21:53;;;;;;;;;;;;;;;;;;348373;28;892;-71
2021/11/30 00:22:05;;;;;;;;;;;;;;;;;;348392;28;908;-71
2021/11/30 00:22:20;;;;;;;;;;;;;;;;;;348470;28;992;-71
2021/11/30 00:22:32;;;;;;;;;;;;;;;;;;348461;28;920;-71
2021/11/30 00:22:42;;;;;;;;;;;;;;;;;;348492;28;853;-71
2021/11/30 00:22:53;;;;;;;;;;;;;;;;;;348455;28;782;-71
2021/11/30 00:23:04;;;;;;;;;;;;;;;;;;348455;28;921;-71
2021/11/30 00:23:15;;;;;;;;;;;;;;;;;;348468;28;830;-71
2021/11/30 00:23:25;;;;;;;;;;;;;;;;;;348535;28;921;-71
2021/11/30 00:23:36;;;;;;;;;;;;;;;;;;349649;28;1244;-71
2021/11/30 00:23:46;;;;;;;;;;;;;;;;;;349819;28;868;-71
2021/11/30 00:24:27;;;;;;;;;;;;;;;;;;349889;28;960;-71
2021/11/30 00:24:37;;;;;;;;;;;;;;;;;;349871;28;980;-71
2021/11/30 00:25:04;;;;;;;;;;;;;;;;;;350356;28;782;-71
2021/11/30 00:25:14;;;;;;;;;;;;;;;;;;351275;28;987;-71
2021/11/30 00:25:24;;;;;;;;;;;;;;;;;;351217;28;893;-71
2021/11/30 00:25:35;;;;;;;;;;;;;;;;;;348894;28;1045;-71
2021/11/30 00:25:46;;;;;;;;;;;;;;;;;;348625;28;786;-71
2021/11/30 00:25:57;;;;;;;;;;;;;;;;;;348519;28;976;-71
2021/11/30 00:26:07;;;;;;;;;;;;;;;;;;348522;28;976;-71
2021/11/30 00:26:18;;;;;;;;;;;;;;;;;;348639;28;952;-71
2021/11/30 00:26:54;;;;;;;;;;;;;;;;;;348420;28;870;-71
2021/11/30 00:27:05;;;;;;;;;;;;;;;;;;348248;28;972;-71
2021/11/30 00:27:17;;;;;;;;;;;;;;;;;;348519;28;810;-71
2021/11/30 00:27:27;;;;;;;;;;;;;;;;;;348465;28;924;-71
2021/11/30 00:27:37;;;;;;;;;;;;;;;;;;348280;28;1310;-71
2021/11/30 00:27:48;;;;;;;;;;;;;;;;;;348393;28;1182;-71
2021/11/30 00:27:58;;;;;;;;;;;;;;;;;;348530;28;833;-71
2021/11/30 00:28:09;;;;;;;;;;;;;;;;;;348390;28;790;-71
2021/11/30 00:28:45;;;;;;;;;;;;;;;;;;348493;28;907;-71
2021/11/30 00:28:56;;;;;;;;;;;;;;;;;;348512;28;1030;-71
2021/11/30 00:29:06;;;;;;;;;;;;;;;;;;348470;28;893;-71
2021/11/30 00:29:16;;;;;;;;;;;;;;;;;;349712;28;1898;-71
2021/11/30 00:29:32;;;;;;;;;;;;;;;;;;349870;28;849;-71
2021/11/30 00:29:49;;;;;;;;;;;;;;;;;;349378;28;1382;-71
2021/11/30 00:29:59;;;;;;;;;;;;;;;;;;348641;28;1000;-71
2021/11/30 00:30:10;;;;;;;;;;;;;;;;;;348618;28;980;-72
2021/11/30 00:30:21;;;;;;;;;;;;;;;;;;348497;28;925;-71
2021/11/30 00:30:32;;;;;;;;;;;;;;;;;;348571;28;1007;-72
2021/11/30 00:30:43;;;;;;;;;;;;;;;;;;348608;28;849;-71
2021/11/30 00:30:53;;;;;;;;;;;;;;;;;;348615;28;830;-71
2021/11/30 00:31:04;;;;;;;;;;;;;;;;;;348605;28;858;-71
2021/11/30 00:31:14;;;;;;;;;;;;;;;;;;348619;28;944;-71
2021/11/30 00:31:24;;;;;;;;;;;;;;;;;;348492;28;901;-72
2021/11/30 00:32:02;;;;;;;;;;;;;;;;;;349710;28;928;-71
2021/11/30 00:32:13;;;;;;;;;;;;;;;;;;349840;28;861;-71
2021/11/30 00:32:23;;;;;;;;;;;;;;;;;;349878;28;920;-71
2021/11/30 00:32:33;;;;;;;;;;;;;;;;;;349814;28;844;-71
2021/11/30 00:32:44;;;;;;;;;;;;;;;;;;349790;28;810;-71
2021/11/30 00:32:54;;;;;;;;;;;;;;;;;;349753;28;973;-71
2021/11/30 00:34:00;;;;;;;;;;;;;;;;;;348535;28;846;-73
2021/11/30 00:34:10;;;;;;;;;;;;;;;;;;348561;28;968;-71
2021/11/30 00:34:21;;;;;;;;;;;;;;;;;;348620;28;802;-71
2021/11/30 00:34:32;;;;;;;;;;;;;;;;;;348556;28;968;-71
2021/11/30 00:34:42;;;;;;;;;;;;;;;;;;348539;28;782;-71
2021/11/30 00:34:53;;;;;;;;;;;;;;;;;;348469;28;1008;-71
2021/11/30 00:35:03;;;;;;;;;;;;;;;;;;348554;28;976;-71
2021/11/30 00:35:14;;;;;;;;;;;;;;;;;;348548;28;932;-71
2021/11/30 00:35:24;;;;;;;;;;;;;;;;;;348577;28;976;-71
2021/11/30 00:35:35;;;;;;;;;;;;;;;;;;348469;28;999;-71
2021/11/30 00:35:45;;;;;;;;;;;;;;;;;;348570;28;799;-71
2021/11/30 00:35:56;;;;;;;;;;;;;;;;;;349788;28;967;-71
2021/11/30 00:36:06;;;;;;;;;;;;;;;;;;349864;28;865;-71
2021/11/30 00:36:17;;;;;;;;;;;;;;;;;;349789;28;913;-71
2021/11/30 00:36:28;;;;;;;;;;;;;;;;;;349764;28;981;-71
2021/11/30 00:36:38;;;;;;;;;;;;;;;;;;349889;28;806;-72
2021/11/30 00:36:49;;;;;;;;;;;;;;;;;;349846;28;898;-71
2021/11/30 00:37:05;;;;;;;;;;;;;;;;;;349777;28;913;-71
2021/11/30 00:37:16;;;;;;;;;;;;;;;;;;349797;28;1678;-71
2021/11/30 00:37:26;;;;;;;;;;;;;;;;;;348510;28;716;-72
2021/11/30 00:37:36;;;;;;;;;;;;;;;;;;348404;28;925;-71
2021/11/30 00:37:47;;;;;;;;;;;;;;;;;;348459;28;854;-71
2021/11/30 00:37:58;;;;;;;;;;;;;;;;;;348490;28;802;-71
2021/11/30 00:38:13;;;;;;;;;;;;;;;;;;347057;28;837;-72
2021/11/30 00:38:23;;;;;;;;;;;;;;;;;;345724;28;1009;-71
2021/11/30 00:38:33;;;;;;;;;;;;;;;;;;347066;28;1176;-71
2021/11/30 00:38:44;;;;;;;;;;;;;;;;;;347114;28;1016;-71
2021/11/30 00:38:54;;;;;;;;;;;;;;;;;;345682;28;961;-72
2021/11/30 00:39:05;;;;;;;;;;;;;;;;;;345679;28;1060;-71
2021/11/30 00:39:35;;;;;;;;;;;;;;;;;;345697;28;890;-72
2021/11/30 00:40:33;;;;;;;;;;;;;;;;;;347797;28;818;-71
2021/11/30 00:40:59;;;;;;;;;;;;;;;;;;348170;28;869;-71
2021/11/30 00:41:09;;;;;;;;;;;;;;;;;;348417;28;861;-71
2021/11/30 00:41:19;;;;;;;;;;;;;;;;;;348464;28;825;-71
2021/11/30 00:41:35;;;;;;;;;;;;;;;;;;348382;28;841;-70
2021/11/30 00:42:06;;;;;;;;;;;;;;;;;;346989;28;1446;-71
2021/11/30 00:42:32;;;;;;;;;;;;;;;;;;344127;28;1163;-71
2021/11/30 00:42:43;;;;;;;;;;;;;;;;;;344328;28;874;-71
2021/11/30 00:42:55;;;;;;;;;;;;;;;;;;344372;28;823;-71
2021/11/30 00:43:06;;;;;;;;;;;;;;;;;;344253;28;1064;-71
2021/11/30 00:43:22;;;;;;;;;;;;;;;;;;344277;28;981;-71
2021/11/30 00:43:58;;;;;;;;;;;;;;;;;;342979;28;937;-71
2021/11/30 00:44:09;;;;;;;;;;;;;;;;;;343006;28;932;-71
2021/11/30 00:44:26;;;;;;;;;;;;;;;;;;342962;28;1017;-71
2021/11/30 00:45:05;;;;;;;;;;;;;;;;;;342915;28;1091;-71
2021/11/30 00:45:57;;;;;;;;;;;;;;;;;;344234;28;934;-71
2021/11/30 00:46:18;;;;;;;;;;;;;;;;;;342917;28;874;-71
2021/11/30 00:46:56;;;;;;;;;;;;;;;;;;342998;28;966;-71
2021/11/30 00:47:29;;;;;;;;;;;;;;;;;;342808;28;981;-71
2021/11/30 00:47:47;;;;;;;;;;;;;;;;;;340183;29;1162;-71
2021/11/30 00:47:59;;;;;;;;;;;;;;;;;;340296;29;1090;-71
2021/11/30 00:48:11;;;;;;;;;;;;;;;;;;341595;29;878;-72
2021/11/30 00:48:47;;;;;;;;;;;;;;;;;;347719;28;1156;-71
2021/11/30 00:48:57;;;;;;;;;;;;;;;;;;351056;28;933;-71
2021/11/30 00:49:09;;;;;;;;;;;;;;;;;;349847;28;940;-71
2021/11/30 00:49:35;;;;;;;;;;;;;;;;;;349849;28;1898;-71
2021/11/30 00:49:47;;;;;;;;;;;;;;;;;;349809;28;972;-71
2021/11/30 00:49:58;;;;;;;;;;;;;;;;;;349799;28;984;-71
2021/11/30 00:50:09;;;;;;;;;;;;;;;;;;349803;28;972;-72
2021/11/30 00:50:21;;;;;;;;;;;;;;;;;;349831;28;979;-71
2021/11/30 00:50:31;;;;;;;;;;;;;;;;;;349783;28;802;-71
2021/11/30 00:50:42;;;;;;;;;;;;;;;;;;349841;28;836;-71
2021/11/30 00:50:53;;;;;;;;;;;;;;;;;;349304;28;1045;-71
2021/11/30 00:51:17;;;;;;;;;;;;;;;;;;350842;28;798;-71
2021/11/30 00:51:27;;;;;;;;;;;;;;;;;;351201;28;781;-71
2021/11/30 00:51:39;;;;;;;;;;;;;;;;;;351168;28;825;-71
2021/11/30 00:51:51;;;;;;;;;;;;;;;;;;351554;28;1027;-71
2021/11/30 00:52:21;;;;;;;;;;;;;;;;;;351682;28;817;-71
2021/11/30 00:52:35;;;;;;;;;;;;;;;;;;347550;28;975;-71
2021/11/30 00:52:48;;;;;;;;;;;;;;;;;;347371;28;976;-71
2021/11/30 00:52:59;;;;;;;;;;;;;;;;;;346912;28;944;-71
2021/11/30 00:53:51;;;;;;;;;;;;;;;;;;346071;28;993;-71
2021/11/30 00:54:29;;;;;;;;;;;;;;;;;;346129;28;975;-71
2021/11/30 00:54:41;;;;;;;;;;;;;;;;;;346089;28;819;-71
2021/11/30 00:54:51;;;;;;;;;;;;;;;;;;346144;28;827;-71
2021/11/30 00:55:02;;;;;;;;;;;;;;;;;;346038;28;965;-71
2021/11/30 00:55:13;;;;;;;;;;;;;;;;;;346075;28;1008;-71
2021/11/30 00:55:23;;;;;;;;;;;;;;;;;;346059;28;1028;-71
2021/11/30 00:55:36;;;;;;;;;;;;;;;;;;346045;28;941;-71
2021/11/30 00:55:47;;;;;;;;;;;;;;;;;;346143;28;965;-71
2021/11/30 00:55:57;;;;;;;;;;;;;;;;;;346039;28;1087;-71
2021/11/30 00:56:11;;;;;;;;;;;;;;;;;;346114;28;933;-71
2021/11/30 00:56:48;;;;;;;;;;;;;;;;;;346115;28;1012;-71
2021/11/30 00:56:59;;;;;;;;;;;;;;;;;;346135;28;984;-71
2021/11/30 00:57:09;;;;;;;;;;;;;;;;;;345916;28;1040;-71
2021/11/30 00:57:20;;;;;;;;;;;;;;;;;;345987;28;783;-71
2021/11/30 00:57:49;;;;;;;;;;;;;;;;;;346132;28;534;-71
2021/11/30 00:58:00;;;;;;;;;;;;;;;;;;347529;28;704;-71
2021/11/30 00:58:10;;;;;;;;;;;;;;;;;;347519;28;925;-71
2021/11/30 00:58:21;;;;;;;;;;;;;;;;;;347469;28;933;-71
2021/11/30 00:58:31;;;;;;;;;;;;;;;;;;349494;28;993;-71
2021/11/30 00:59:09;;;;;;;;;;;;;;;;;;350278;28;755;-71
2021/11/30 00:59:19;;;;;;;;;;;;;;;;;;350174;28;984;-71
2021/11/30 00:59:30;;;;;;;;;;;;;;;;;;350275;28;964;-71
2021/11/30 00:59:46;;;;;;;;;;;;;;;;;;350207;28;936;-71
2021/11/30 01:00:38;;;;;;;;;;;;;;;;;;348933;28;885;-71
2021/11/30 01:00:52;;;;;;;;;;;;;;;;;;348974;28;842;-71
2021/11/30 01:01:03;;;;;;;;;;;;;;;;;;349038;28;901;-71
2021/11/30 01:01:40;;;;;;;;;;;;;;;;;;348828;28;854;-71
2021/11/30 01:01:50;;;;;;;;;;;;;;;;;;349052;28;976;-72
2021/11/30 01:02:01;;;;;;;;;;;;;;;;;;348998;28;794;-71
2021/11/30 01:02:11;;;;;;;;;;;;;;;;;;349000;28;801;-71
2021/11/30 01:02:49;;;;;;;;;;;;;;;;;;349064;28;984;-71
2021/11/30 01:02:59;;;;;;;;;;;;;;;;;;348962;28;972;-71
2021/11/30 01:03:10;;;;;;;;;;;;;;;;;;349071;28;881;-71
2021/11/30 01:03:20;;;;;;;;;;;;;;;;;;349010;28;877;-71
2021/11/30 01:03:31;;;;;;;;;;;;;;;;;;348974;28;798;-71
2021/11/30 01:03:42;;;;;;;;;;;;;;;;;;351560;28;1638;-71
2021/11/30 01:03:53;;;;;;;;;;;;;;;;;;351605;28;912;-71
2021/11/30 01:04:03;;;;;;;;;;;;;;;;;;351700;28;860;-71
2021/11/30 01:04:14;;;;;;;;;;;;;;;;;;351679;28;1043;-71
2021/11/30 01:04:24;;;;;;;;;;;;;;;;;;351706;28;963;-71
2021/11/30 01:04:35;;;;;;;;;;;;;;;;;;351708;28;976;-71
2021/11/30 01:04:45;;;;;;;;;;;;;;;;;;351704;28;959;-71
2021/11/30 01:05:11;;;;;;;;;;;;;;;;;;351718;28;901;-71
2021/11/30 01:05:21;;;;;;;;;;;;;;;;;;351628;28;969;-71
2021/11/30 01:05:33;;;;;;;;;;;;;;;;;;351642;28;1031;-71
2021/11/30 01:06:38;;;;;;;;;;;;;;;;;;348899;28;944;-71
2021/11/30 01:06:50;;;;;;;;;;;;;;;;;;348898;28;921;-71
2021/11/30 01:07:01;;;;;;;;;;;;;;;;;;348891;28;802;-71
2021/11/30 01:07:11;;;;;;;;;;;;;;;;;;348892;28;929;-71
2021/11/30 01:07:22;;;;;;;;;;;;;;;;;;348739;28;806;-71
2021/11/30 01:07:35;;;;;;;;;;;;;;;;;;348715;28;917;-71
2021/11/30 01:08:11;;;;;;;;;;;;;;;;;;348996;28;1130;-71
2021/11/30 01:08:22;;;;;;;;;;;;;;;;;;348938;28;1004;-71
2021/11/30 01:08:32;;;;;;;;;;;;;;;;;;349020;28;897;-71
2021/11/30 01:08:43;;;;;;;;;;;;;;;;;;349059;28;826;-71
2021/11/30 01:08:53;;;;;;;;;;;;;;;;;;348970;28;849;-71
2021/11/30 01:09:04;;;;;;;;;;;;;;;;;;349030;28;893;-71
2021/11/30 01:09:15;;;;;;;;;;;;;;;;;;348993;28;806;-71
2021/11/30 01:09:26;;;;;;;;;;;;;;;;;;348684;28;1939;-71
2021/11/30 01:09:36;;;;;;;;;;;;;;;;;;348760;28;1047;-71
2021/11/30 01:10:14;;;;;;;;;;;;;;;;;;348870;28;929;-71
2021/11/30 01:10:24;;;;;;;;;;;;;;;;;;348959;28;822;-71
2021/11/30 01:10:51;;;;;;;;;;;;;;;;;;348736;28;924;-71
2021/11/30 01:11:27;;;;;;;;;;;;;;;;;;350259;28;877;-71
2021/11/30 01:12:04;;;;;;;;;;;;;;;;;;349039;28;870;-71
2021/11/30 01:12:14;;;;;;;;;;;;;;;;;;349032;28;857;-71
2021/11/30 01:12:25;;;;;;;;;;;;;;;;;;348820;28;884;-71
2021/11/30 01:12:35;;;;;;;;;;;;;;;;;;348769;28;1036;-71
2021/11/30 01:12:46;;;;;;;;;;;;;;;;;;349148;28;1230;-71
2021/11/30 01:12:56;;;;;;;;;;;;;;;;;;350247;28;868;-71
2021/11/30 01:13:19;;;;;;;;;;;;;;;;;;350298;28;864;-71
2021/11/30 01:13:32;;;;;;;;;;;;;;;;;;350229;28;968;-71
2021/11/30 01:13:43;;;;;;;;;;;;;;;;;;350283;28;1020;-71
2021/11/30 01:14:02;;;;;;;;;;;;;;;;;;350286;28;1051;-71
2021/11/30 01:14:13;;;;;;;;;;;;;;;;;;350325;28;822;-71
2021/11/30 01:14:23;;;;;;;;;;;;;;;;;;350310;28;885;-71
2021/11/30 01:14:33;;;;;;;;;;;;;;;;;;350408;28;762;-71
2021/11/30 01:14:44;;;;;;;;;;;;;;;;;;350431;28;973;-71
2021/11/30 01:14:54;;;;;;;;;;;;;;;;;;350246;28;913;-71
2021/11/30 01:15:07;;;;;;;;;;;;;;;;;;350377;28;933;-71
2021/11/30 01:15:19;;;;;;;;;;;;;;;;;;350378;28;1012;-71
2021/11/30 01:15:56;;;;;;;;;;;;;;;;;;350293;28;965;-71
2021/11/30 01:16:06;;;;;;;;;;;;;;;;;;350166;28;921;-71
2021/11/30 01:16:17;;;;;;;;;;;;;;;;;;350300;28;829;-71
2021/11/30 01:16:27;;;;;;;;;;;;;;;;;;350348;28;786;-71
2021/11/30 01:16:38;;;;;;;;;;;;;;;;;;350252;28;976;-71
2021/11/30 01:16:48;;;;;;;;;;;;;;;;;;350246;28;912;-71
2021/11/30 01:16:59;;;;;;;;;;;;;;;;;;350270;28;988;-72
2021/11/30 01:17:09;;;;;;;;;;;;;;;;;;350157;28;1016;-71
2021/11/30 01:17:20;;;;;;;;;;;;;;;;;;350242;28;778;-71
2021/11/30 01:17:30;;;;;;;;;;;;;;;;;;350192;28;786;-71
2021/11/30 01:17:41;;;;;;;;;;;;;;;;;;350222;28;896;-71
2021/11/30 01:17:51;;;;;;;;;;;;;;;;;;350285;28;932;-71
2021/11/30 01:18:01;;;;;;;;;;;;;;;;;;350321;28;969;-71
2021/11/30 01:18:12;;;;;;;;;;;;;;;;;;350418;28;826;-71
2021/11/30 01:18:23;;;;;;;;;;;;;;;;;;350369;28;1031;-71
2021/11/30 01:18:34;;;;;;;;;;;;;;;;;;350449;28;913;-71
2021/11/30 01:18:44;;;;;;;;;;;;;;;;;;350366;28;1007;-71
2021/11/30 01:19:10;;;;;;;;;;;;;;;;;;350427;28;810;-71
2021/11/30 01:19:20;;;;;;;;;;;;;;;;;;350272;28;909;-71
2021/11/30 01:19:31;;;;;;;;;;;;;;;;;;350245;28;830;-71
2021/11/30 01:19:41;;;;;;;;;;;;;;;;;;350150;28;1553;-71
2021/11/30 01:19:51;;;;;;;;;;;;;;;;;;350359;28;786;-71
2021/11/30 01:20:03;;;;;;;;;;;;;;;;;;350277;28;857;-71
2021/11/30 01:20:13;;;;;;;;;;;;;;;;;;350225;28;1028;-71
2021/11/30 01:20:25;;;;;;;;;;;;;;;;;;350235;28;980;-71
2021/11/30 01:20:36;;;;;;;;;;;;;;;;;;350284;28;928;-71
2021/11/30 01:20:47;;;;;;;;;;;;;;;;;;348808;28;917;-71
2021/11/30 01:20:57;;;;;;;;;;;;;;;;;;348897;28;960;-71
2021/11/30 01:21:08;;;;;;;;;;;;;;;;;;348878;28;905;-71
2021/11/30 01:21:18;;;;;;;;;;;;;;;;;;348916;28;739;-71
2021/11/30 01:21:29;;;;;;;;;;;;;;;;;;348869;28;997;-71
2021/11/30 01:21:40;;;;;;;;;;;;;;;;;;350056;28;1207;-71
2021/11/30 01:21:51;;;;;;;;;;;;;;;;;;350321;28;865;-71
2021/11/30 01:22:02;;;;;;;;;;;;;;;;;;350233;28;972;-71
2021/11/30 01:22:31;;;;;;;;;;;;;;;;;;350169;28;640;-71
2021/11/30 01:22:42;;;;;;;;;;;;;;;;;;350645;28;901;-71
2021/11/30 01:22:53;;;;;;;;;;;;;;;;;;351685;28;984;-71
2021/11/30 01:23:05;;;;;;;;;;;;;;;;;;351666;28;841;-71
2021/11/30 01:23:15;;;;;;;;;;;;;;;;;;351663;28;932;-71
2021/11/30 01:23:26;;;;;;;;;;;;;;;;;;351641;28;984;-71
2021/11/30 01:23:55;;;;;;;;;;;;;;;;;;350759;28;1053;-71
2021/11/30 01:24:06;;;;;;;;;;;;;;;;;;351518;28;1406;-70
2021/11/30 01:24:17;;;;;;;;;;;;;;;;;;350280;28;798;-70
2021/11/30 01:24:27;;;;;;;;;;;;;;;;;;350296;28;980;-70
2021/11/30 01:24:38;;;;;;;;;;;;;;;;;;350265;28;877;-71
2021/11/30 01:24:48;;;;;;;;;;;;;;;;;;350257;28;1006;-71
2021/11/30 01:25:14;;;;;;;;;;;;;;;;;;350257;28;973;-71
2021/11/30 01:25:25;;;;;;;;;;;;;;;;;;350338;28;944;-71
2021/11/30 01:25:38;;;;;;;;;;;;;;;;;;350176;28;830;-71
2021/11/30 01:26:09;;;;;;;;;;;;;;;;;;347362;28;1138;-71
2021/11/30 01:26:19;;;;;;;;;;;;;;;;;;347484;28;798;-71
2021/11/30 01:26:30;;;;;;;;;;;;;;;;;;347398;28;976;-71
2021/11/30 01:26:40;;;;;;;;;;;;;;;;;;347500;28;818;-71
2021/11/30 01:26:51;;;;;;;;;;;;;;;;;;347444;28;945;-70
2021/11/30 01:27:01;;;;;;;;;;;;;;;;;;347428;28;853;-71
2021/11/30 01:27:11;;;;;;;;;;;;;;;;;;347489;28;825;-71
2021/11/30 01:27:22;;;;;;;;;;;;;;;;;;350192;28;1107;-71
2021/11/30 01:27:32;;;;;;;;;;;;;;;;;;350286;28;932;-71
2021/11/30 01:27:42;;;;;;;;;;;;;;;;;;350291;28;814;-70
2021/11/30 01:27:53;;;;;;;;;;;;;;;;;;350354;28;975;-71
2021/11/30 01:28:03;;;;;;;;;;;;;;;;;;350324;28;1031;-71
2021/11/30 01:28:14;;;;;;;;;;;;;;;;;;350318;28;810;-71
2021/11/30 01:28:24;;;;;;;;;;;;;;;;;;350318;28;999;-71
2021/11/30 01:28:46;;;;;;;;;;;;;;;;;;350128;28;1241;-71
2021/11/30 01:28:57;;;;;;;;;;;;;;;;;;350229;28;1003;-70
2021/11/30 01:29:07;;;;;;;;;;;;;;;;;;350307;28;928;-71
2021/11/30 01:29:18;;;;;;;;;;;;;;;;;;350217;28;1969;-71
2021/11/30 01:29:41;;;;;;;;;;;;;;;;;;350283;28;845;-71
2021/11/30 01:29:51;;;;;;;;;;;;;;;;;;350299;28;1039;-71
2021/11/30 01:30:03;;;;;;;;;;;;;;;;;;350277;28;949;-71
2021/11/30 01:30:14;;;;;;;;;;;;;;;;;;350263;28;814;-71
2021/11/30 01:30:25;;;;;;;;;;;;;;;;;;350295;28;854;-70
2021/11/30 01:30:35;;;;;;;;;;;;;;;;;;350134;28;996;-70
2021/11/30 01:30:45;;;;;;;;;;;;;;;;;;350232;28;1039;-70
2021/11/30 01:30:56;;;;;;;;;;;;;;;;;;350313;28;968;-70
2021/11/30 01:31:06;;;;;;;;;;;;;;;;;;350278;28;810;-71
2021/11/30 01:31:43;;;;;;;;;;;;;;;;;;351651;28;1012;-71
2021/11/30 01:32:19;;;;;;;;;;;;;;;;;;353103;28;980;-71
2021/11/30 01:32:29;;;;;;;;;;;;;;;;;;353051;28;1037;-71
2021/11/30 01:32:43;;;;;;;;;;;;;;;;;;352911;28;860;-71
2021/11/30 01:33:14;;;;;;;;;;;;;;;;;;348020;28;1050;-71
2021/11/30 01:33:24;;;;;;;;;;;;;;;;;;347480;28;881;-71
2021/11/30 01:33:35;;;;;;;;;;;;;;;;;;347332;28;1060;-71
2021/11/30 01:33:46;;;;;;;;;;;;;;;;;;347487;28;810;-71
2021/11/30 01:33:56;;;;;;;;;;;;;;;;;;346063;28;1023;-71
2021/11/30 01:34:33;;;;;;;;;;;;;;;;;;350268;28;1051;-71
2021/11/30 01:34:43;;;;;;;;;;;;;;;;;;350255;28;957;-71
2021/11/30 01:34:53;;;;;;;;;;;;;;;;;;350180;28;888;-71
2021/11/30 01:35:04;;;;;;;;;;;;;;;;;;350294;28;845;-71
2021/11/30 01:35:30;;;;;;;;;;;;;;;;;;350217;28;989;-71
2021/11/30 01:35:43;;;;;;;;;;;;;;;;;;350184;28;1004;-71
2021/11/30 01:35:55;;;;;;;;;;;;;;;;;;350323;28;1007;-71
2021/11/30 01:36:06;;;;;;;;;;;;;;;;;;350364;28;798;-71
2021/11/30 01:36:35;;;;;;;;;;;;;;;;;;350363;28;1019;-71
2021/11/30 01:36:47;;;;;;;;;;;;;;;;;;350282;28;909;-71
2021/11/30 01:36:57;;;;;;;;;;;;;;;;;;350355;28;912;-70
2021/11/30 01:37:13;;;;;;;;;;;;;;;;;;350252;28;872;-70
2021/11/30 01:37:23;;;;;;;;;;;;;;;;;;353060;28;1000;-71
2021/11/30 01:37:34;;;;;;;;;;;;;;;;;;352962;28;913;-71
2021/11/30 01:37:45;;;;;;;;;;;;;;;;;;352953;28;817;-71
2021/11/30 01:37:56;;;;;;;;;;;;;;;;;;353026;28;1008;-71
2021/11/30 01:38:23;;;;;;;;;;;;;;;;;;353093;28;909;-71
2021/11/30 01:38:34;;;;;;;;;;;;;;;;;;351722;28;996;-71
2021/11/30 01:38:44;;;;;;;;;;;;;;;;;;350133;28;1282;-71
2021/11/30 01:38:55;;;;;;;;;;;;;;;;;;350317;28;1035;-70
2021/11/30 01:39:06;;;;;;;;;;;;;;;;;;348881;28;810;-71
2021/11/30 01:39:16;;;;;;;;;;;;;;;;;;347914;28;814;-71
2021/11/30 01:39:27;;;;;;;;;;;;;;;;;;347411;28;1004;-71
2021/11/30 01:39:38;;;;;;;;;;;;;;;;;;347403;28;1055;-70
2021/11/30 01:39:48;;;;;;;;;;;;;;;;;;347464;28;917;-70
2021/11/30 01:39:59;;;;;;;;;;;;;;;;;;347489;28;968;-70
2021/11/30 01:40:11;;;;;;;;;;;;;;;;;;347481;28;1027;-71
2021/11/30 01:40:24;;;;;;;;;;;;;;;;;;346068;28;936;-71
2021/11/30 01:40:34;;;;;;;;;;;;;;;;;;347553;28;945;-71
2021/11/30 01:40:45;;;;;;;;;;;;;;;;;;347464;28;917;-71
2021/11/30 01:40:57;;;;;;;;;;;;;;;;;;347514;28;997;-71
2021/11/30 01:41:35;;;;;;;;;;;;;;;;;;347301;28;791;-70
2021/11/30 01:41:45;;;;;;;;;;;;;;;;;;347482;28;995;-71
2021/11/30 01:41:57;;;;;;;;;;;;;;;;;;347518;28;790;-71
2021/11/30 01:42:08;;;;;;;;;;;;;;;;;;347483;28;1068;-71
2021/11/30 01:42:19;;;;;;;;;;;;;;;;;;348385;28;802;-71
2021/11/30 01:42:30;;;;;;;;;;;;;;;;;;348851;28;1068;-71
2021/11/30 01:43:04;;;;;;;;;;;;;;;;;;344679;28;982;-71
2021/11/30 01:43:19;;;;;;;;;;;;;;;;;;344700;28;1080;-70
2021/11/30 01:44:01;;;;;;;;;;;;;;;;;;350277;28;945;-70
2021/11/30 01:44:27;;;;;;;;;;;;;;;;;;350419;28;747;-71
2021/11/30 01:44:47;;;;;;;;;;;;;;;;;;350389;28;943;-71
2021/11/30 01:45:05;;;;;;;;;;;;;;;;;;350336;28;825;-71
2021/11/30 01:45:57;;;;;;;;;;;;;;;;;;350324;28;999;-70
2021/11/30 01:46:51;;;;;;;;;;;;;;;;;;350278;28;801;-71
2021/11/30 01:47:07;;;;;;;;;;;;;;;;;;352751;28;1031;-71
2021/11/30 01:47:58;;;;;;;;;;;;;;;;;;352924;28;948;-70
2021/11/30 01:49:12;;;;;;;;;;;;;;;;;;351686;28;871;-71
2021/11/30 01:49:19;;;;;;;;;;;;;;;;;;350177;28;992;-71
2021/11/30 01:49:35;;;;;;;;;;;;;;;;;;350197;28;984;-71
2021/11/30 01:49:45;;;;;;;;;;;;;;;;;;350213;28;908;-71
2021/11/30 01:49:56;;;;;;;;;;;;;;;;;;350228;28;920;-71
2021/11/30 01:50:08;;;;;;;;;;;;;;;;;;350392;28;892;-71
2021/11/30 01:50:19;;;;;;;;;;;;;;;;;;350331;28;864;-71
2021/11/30 01:50:29;;;;;;;;;;;;;;;;;;350295;28;856;-71
2021/11/30 01:50:40;;;;;;;;;;;;;;;;;;352962;28;1622;-71
2021/11/30 01:50:55;;;;;;;;;;;;;;;;;;351663;28;917;-71